createdAt,value
2023-03-02T00:00:14.805Z,81.51
2023-03-02T00:03:20.273Z,81.35
2023-03-02T00:06:22.839Z,81.24
2023-03-02T00:09:25.688Z,81.40
2023-03-02T00:12:30.597Z,82.22
2023-03-02T00:15:33.128Z,81.97
2023-03-02T00:18:36.076Z,81.81
2023-03-02T00:21:38.607Z,82.00
2023-03-02T00:24:41.172Z,81.94
2023-03-02T00:27:44.500Z,82.46
2023-03-02T00:30:47.924Z,82.33
2023-03-02T00:33:54.343Z,81.79
2023-03-02T00:36:56.844Z,81.85
2023-03-02T00:39:59.311Z,82.02
2023-03-02T00:43:02.069Z,82.20
2023-03-02T00:46:12.853Z,82.22
2023-03-02T00:49:15.511Z,82.33
2023-03-02T00:52:18.258Z,81.82
2023-03-02T00:55:20.996Z,82.50
2023-03-02T00:58:26.472Z,82.92
2023-03-02T01:01:29.890Z,82.68
2023-03-02T01:04:41.424Z,83.23
2023-03-02T01:07:43.926Z,83.49
2023-03-02T01:10:47.194Z,83.03
2023-03-02T01:13:50.482Z,84.50
2023-03-02T01:16:53.011Z,86.72
2023-03-02T01:19:56.461Z,85.74
2023-03-02T01:22:59.578Z,84.82
2023-03-02T01:26:02.313Z,84.32
2023-03-02T01:29:04.972Z,84.95
2023-03-02T01:32:08.889Z,83.98
2023-03-02T01:35:11.843Z,84.02
2023-03-02T01:38:14.607Z,83.52
2023-03-02T01:41:17.883Z,84.11
2023-03-02T01:44:35.875Z,83.96
2023-03-02T01:47:39.921Z,84.07
2023-03-02T01:50:50.144Z,83.83
2023-03-02T01:53:58.378Z,84.20
2023-03-02T01:57:03.272Z,83.77
2023-03-02T02:00:08.885Z,84.31
2023-03-02T02:03:20.971Z,84.50
2023-03-02T02:06:37.130Z,84.40
2023-03-02T02:09:51.453Z,84.84
2023-03-02T02:12:54.125Z,85.74
2023-03-02T02:15:56.696Z,85.19
2023-03-02T02:19:01.083Z,83.91
2023-03-02T02:22:04.526Z,83.73
2023-03-02T02:25:21.105Z,83.70
2023-03-02T02:28:32.001Z,83.51
2023-03-02T02:32:07.052Z,83.47
2023-03-02T02:35:19.860Z,83.23
2023-03-02T02:38:24.605Z,83.34
2023-03-02T02:41:31.675Z,82.83
2023-03-02T02:44:35.048Z,82.70
2023-03-02T02:47:38.133Z,82.56
2023-03-02T02:50:43.191Z,82.25
2023-03-02T02:53:58.645Z,81.98
2023-03-02T02:57:05.069Z,82.43
2023-03-02T03:00:18.128Z,81.82
2023-03-02T03:03:34.301Z,81.81
2023-03-02T03:06:50.763Z,81.30
2023-03-02T03:10:01.307Z,81.64
2023-03-02T03:13:04.237Z,80.76
2023-03-02T03:16:11.380Z,80.79
2023-03-02T03:19:24.189Z,80.81
2023-03-02T03:22:27.637Z,80.96
2023-03-02T03:25:35.026Z,79.96
2023-03-02T03:28:38.034Z,79.24
2023-03-02T03:31:41.488Z,78.81
2023-03-02T03:34:44.436Z,78.87
2023-03-02T03:37:57.138Z,79.00
2023-03-02T03:41:00.738Z,78.73
2023-03-02T03:44:04.712Z,78.99
2023-03-02T03:47:09.753Z,78.50
2023-03-02T03:50:13.098Z,78.55
2023-03-02T03:53:17.152Z,78.41
2023-03-02T03:56:20.286Z,78.05
2023-03-02T03:59:25.060Z,77.67
2023-03-02T04:02:32.006Z,78.07
2023-03-02T04:05:34.831Z,77.61
2023-03-02T04:08:38.540Z,77.55
2023-03-02T04:11:43.783Z,78.68
2023-03-02T04:14:46.385Z,78.81
2023-03-02T04:17:49.229Z,79.04
2023-03-02T04:20:54.958Z,80.18
2023-03-02T04:23:57.622Z,79.97
2023-03-02T04:27:00.192Z,80.63
2023-03-02T04:30:03.522Z,80.03
2023-03-02T04:33:07.237Z,80.35
2023-03-02T04:36:11.104Z,80.88
2023-03-02T04:39:19.263Z,80.68
2023-03-02T04:42:25.276Z,81.29
2023-03-02T04:45:27.779Z,81.12
2023-03-02T04:48:30.711Z,80.03
2023-03-02T04:51:42.067Z,79.59
2023-03-02T04:54:44.577Z,78.83
2023-03-02T04:57:47.162Z,78.52
2023-03-02T05:00:49.955Z,78.16
2023-03-02T05:03:53.518Z,79.16
2023-03-02T05:07:01.683Z,78.96
2023-03-02T05:10:04.971Z,79.97
2023-03-02T05:13:07.747Z,80.00
2023-03-02T05:16:10.334Z,80.30
2023-03-02T05:19:13.421Z,81.25
2023-03-02T05:22:16.040Z,81.42
2023-03-02T05:25:18.723Z,81.84
2023-03-02T05:28:23.316Z,81.50
2023-03-02T05:31:31.802Z,81.77
2023-03-02T05:34:34.483Z,81.75
2023-03-02T05:37:39.839Z,82.11
2023-03-02T05:40:43.430Z,82.08
2023-03-02T05:43:45.905Z,81.81
2023-03-02T05:46:49.692Z,81.67
2023-03-02T05:49:52.503Z,81.77
2023-03-02T05:52:55.075Z,81.81
2023-03-02T05:55:57.644Z,81.95
2023-03-02T05:59:00.195Z,81.41
2023-03-02T06:02:03.307Z,82.12
2023-03-02T06:05:11.462Z,82.03
2023-03-02T06:08:14.005Z,81.43
2023-03-02T06:11:17.159Z,80.69
2023-03-02T06:14:19.753Z,80.96
2023-03-02T06:17:22.234Z,78.92
2023-03-02T06:20:25.463Z,75.63
2023-03-02T06:23:28.251Z,76.32
2023-03-02T06:26:31.457Z,74.41
2023-03-02T06:29:34.182Z,72.76
2023-03-02T06:32:36.974Z,69.69
2023-03-02T06:35:39.679Z,68.42
2023-03-02T06:38:42.529Z,68.21
2023-03-02T06:41:46.682Z,67.96
2023-03-02T06:44:49.786Z,67.10
2023-03-02T06:47:54.109Z,68.06
2023-03-02T06:50:57.442Z,66.27
2023-03-02T06:54:00.284Z,65.13
2023-03-02T06:57:03.089Z,65.12
2023-03-02T07:00:15.503Z,64.64
2023-03-02T07:03:23.109Z,64.17
2023-03-02T07:06:25.732Z,61.83
2023-03-02T07:09:30.867Z,61.16
2023-03-02T07:12:33.625Z,60.06
2023-03-02T07:15:42.453Z,59.66
2023-03-02T07:18:45.270Z,59.39
2023-03-02T07:21:48.933Z,57.89
2023-03-02T07:24:51.464Z,59.33
2023-03-02T07:27:53.948Z,58.54
2023-03-02T07:30:56.681Z,57.99
2023-03-02T07:33:59.204Z,58.39
2023-03-02T07:37:34.977Z,58.57
2023-03-02T07:41:33.102Z,57.58
2023-03-02T07:44:36.079Z,55.89
2023-03-02T07:47:38.679Z,55.70
2023-03-02T07:50:41.307Z,53.53
2023-03-02T07:53:43.870Z,52.64
2023-03-02T07:56:46.502Z,52.76
2023-03-02T07:59:49.240Z,52.91
2023-03-02T08:02:51.990Z,52.21
2023-03-02T08:05:56.154Z,51.24
2023-03-02T08:09:00.412Z,50.06
2023-03-02T08:12:02.987Z,48.82
2023-03-02T08:15:09.038Z,49.00
2023-03-02T08:18:11.782Z,48.27
2023-03-02T08:21:17.549Z,47.70
2023-03-02T08:24:20.254Z,46.11
2023-03-02T08:27:22.819Z,46.79
2023-03-02T08:30:26.019Z,46.32
2023-03-02T08:33:29.232Z,47.08
2023-03-02T08:36:32.339Z,47.76
2023-03-02T08:39:35.148Z,46.55
2023-03-02T08:42:37.752Z,46.43
2023-03-02T08:45:40.355Z,45.73
2023-03-02T08:48:43.618Z,45.51
2023-03-02T08:51:47.201Z,45.74
2023-03-02T08:54:49.706Z,46.58
2023-03-02T08:57:52.307Z,46.52
2023-03-02T09:00:56.146Z,45.80
2023-03-02T09:04:00.938Z,45.74
2023-03-02T09:07:04.001Z,45.60
2023-03-02T09:10:08.363Z,44.83
2023-03-02T09:13:11.849Z,45.98
2023-03-02T09:16:20.355Z,44.61
2023-03-02T09:19:22.955Z,43.39
2023-03-02T09:22:25.636Z,43.35
2023-03-02T09:25:29.660Z,43.32
2023-03-02T09:28:34.479Z,43.32
2023-03-02T09:31:37.761Z,42.29
2023-03-02T09:34:40.790Z,42.74
2023-03-02T09:37:44.513Z,43.06
2023-03-02T09:41:00.481Z,42.95
2023-03-02T09:44:09.276Z,42.32
2023-03-02T09:47:29.922Z,43.71
2023-03-02T09:50:45.320Z,43.04
2023-03-02T09:54:00.558Z,42.10
2023-03-02T09:57:06.670Z,42.74
2023-03-02T10:01:18.815Z,44.40
2023-03-02T10:04:27.725Z,42.85
2023-03-02T10:07:33.194Z,42.92
2023-03-02T10:10:46.983Z,43.31
2023-03-02T10:14:13.661Z,41.82
2023-03-02T10:17:43.199Z,41.71
2023-03-02T10:20:52.896Z,41.34
2023-03-02T10:24:10.072Z,41.31
2023-03-02T10:27:42.885Z,41.22
2023-03-02T10:30:50.324Z,42.79
2023-03-02T10:33:53.031Z,42.32
2023-03-02T10:36:55.607Z,42.46
2023-03-02T10:39:58.168Z,42.38
2023-03-02T10:43:01.749Z,42.75
2023-03-02T10:46:07.784Z,42.50
2023-03-02T10:49:30.651Z,42.59
2023-03-02T10:52:34.509Z,43.61
2023-03-02T10:55:48.846Z,43.02
2023-03-02T10:58:51.422Z,42.85
2023-03-02T11:02:24.473Z,44.35
2023-03-02T11:05:32.180Z,44.00
2023-03-02T11:08:35.007Z,45.63
2023-03-02T11:11:38.404Z,44.61
2023-03-02T11:14:43.007Z,44.98
2023-03-02T11:17:51.271Z,47.38
2023-03-02T11:21:36.061Z,46.23
2023-03-02T11:24:49.513Z,46.14
2023-03-02T11:28:00.213Z,46.37
2023-03-02T11:31:07.151Z,47.48
2023-03-02T11:34:18.324Z,48.32
2023-03-02T11:37:23.727Z,47.12
2023-03-02T11:40:46.728Z,47.02
2023-03-02T11:44:06.706Z,46.52
2023-03-02T11:47:12.365Z,48.52
2023-03-02T11:50:17.079Z,48.20
2023-03-02T11:53:24.044Z,46.68
2023-03-02T11:56:33.851Z,46.56
2023-03-02T11:59:36.981Z,48.04
2023-03-02T12:02:40.254Z,47.27
2023-03-02T12:06:00.210Z,47.90
2023-03-02T12:09:25.563Z,46.51
2023-03-02T12:12:36.554Z,45.56
2023-03-02T12:15:50.251Z,45.86
2023-03-02T12:18:53.141Z,44.88
2023-03-02T12:22:00.503Z,45.29
2023-03-02T12:25:21.568Z,45.97
2023-03-02T12:28:34.217Z,45.43
2023-03-02T12:31:52.134Z,44.16
2023-03-02T12:34:59.223Z,45.18
2023-03-02T12:38:16.671Z,43.20
2023-03-02T12:41:40.066Z,43.29
2023-03-02T12:44:54.001Z,43.01
2023-03-02T12:48:22.678Z,40.45
2023-03-02T12:51:33.242Z,40.62
2023-03-02T12:54:37.580Z,40.42
2023-03-02T12:57:58.728Z,40.27
2023-03-02T13:01:06.156Z,38.48
2023-03-02T13:04:21.570Z,38.55
2023-03-02T13:07:28.429Z,36.98
2023-03-02T13:10:37.879Z,36.38
2023-03-02T13:13:45.319Z,36.40
2023-03-02T13:17:00.478Z,36.60
2023-03-02T13:20:06.155Z,35.24
2023-03-02T13:23:15.076Z,36.11
2023-03-02T13:26:26.880Z,34.92
2023-03-02T13:29:32.216Z,34.70
2023-03-02T13:32:39.965Z,34.69
2023-03-02T13:35:47.059Z,34.90
2023-03-02T13:38:53.473Z,34.15
2023-03-02T13:42:00.229Z,33.49
2023-03-02T13:45:29.486Z,33.89
2023-03-02T13:48:34.314Z,33.43
2023-03-02T13:51:45.766Z,33.27
2023-03-02T13:54:49.691Z,33.48
2023-03-02T13:57:54.654Z,31.86
2023-03-02T14:00:58.247Z,32.02
2023-03-02T14:04:02.000Z,31.73
2023-03-02T14:07:06.201Z,33.12
2023-03-02T14:10:12.402Z,32.23
2023-03-02T14:13:22.710Z,32.64
2023-03-02T14:16:28.002Z,33.59
2023-03-02T14:19:38.019Z,31.38
2023-03-02T14:22:42.173Z,32.70
2023-03-02T14:25:45.280Z,31.80
2023-03-02T14:28:53.650Z,31.52
2023-03-02T14:32:04.674Z,31.50
2023-03-02T14:35:12.049Z,32.29
2023-03-02T14:38:15.062Z,31.36
2023-03-02T14:41:23.232Z,30.78
2023-03-02T14:44:26.126Z,32.25
2023-03-02T14:47:28.585Z,31.46
2023-03-02T14:50:38.648Z,31.46
2023-03-02T14:53:42.260Z,30.89
2023-03-02T14:56:45.199Z,31.24
2023-03-02T14:59:49.159Z,30.50
2023-03-02T15:02:52.835Z,30.77
2023-03-02T15:06:01.311Z,30.66
2023-03-02T15:09:05.066Z,31.49
2023-03-02T15:12:08.084Z,32.45
2023-03-02T15:15:12.286Z,34.65
2023-03-02T15:18:19.908Z,33.49
2023-03-02T15:21:25.416Z,34.44
2023-03-02T15:24:28.123Z,35.01
2023-03-02T15:27:31.217Z,36.22
2023-03-02T15:30:37.556Z,38.19
2023-03-02T15:33:40.647Z,40.13
2023-03-02T15:36:43.198Z,40.99
2023-03-02T15:39:45.813Z,41.22
2023-03-02T15:42:49.102Z,42.43
2023-03-02T15:45:51.618Z,42.78
2023-03-02T15:48:54.523Z,42.55
2023-03-02T15:51:58.488Z,42.88
2023-03-02T15:55:00.965Z,43.39
2023-03-02T15:58:08.241Z,44.12
2023-03-02T16:01:12.409Z,44.94
2023-03-02T16:04:15.569Z,45.43
2023-03-02T16:07:18.152Z,46.02
2023-03-02T16:10:21.283Z,46.88
2023-03-02T16:13:25.371Z,48.04
2023-03-02T16:16:27.993Z,48.85
2023-03-02T16:19:30.594Z,50.23
2023-03-02T16:22:33.507Z,50.53
2023-03-02T16:25:39.828Z,51.69
2023-03-02T16:28:42.884Z,51.95
2023-03-02T16:31:47.107Z,52.75
2023-03-02T16:34:49.671Z,53.51
2023-03-02T16:37:53.110Z,54.12
2023-03-02T16:40:57.228Z,54.97
2023-03-02T16:44:01.000Z,56.13
2023-03-02T16:47:04.281Z,56.27
2023-03-02T16:50:07.803Z,56.58
2023-03-02T16:53:13.589Z,56.73
2023-03-02T16:56:16.726Z,57.74
2023-03-02T16:59:19.476Z,58.14
2023-03-02T17:02:22.012Z,58.33
2023-03-02T17:05:24.730Z,58.29
2023-03-02T17:08:28.262Z,59.02
2023-03-02T17:11:31.908Z,59.10
2023-03-02T17:14:34.547Z,59.50
2023-03-02T17:17:38.396Z,59.52
2023-03-02T17:20:43.618Z,59.87
2023-03-02T17:23:48.229Z,60.57
2023-03-02T17:26:50.724Z,61.17
2023-03-02T17:29:55.030Z,61.15
2023-03-02T17:32:58.058Z,61.65
2023-03-02T17:36:07.474Z,62.03
2023-03-02T17:39:10.471Z,62.23
2023-03-02T17:42:13.229Z,63.10
2023-03-02T17:45:23.280Z,62.87
2023-03-02T17:48:26.707Z,63.69
2023-03-02T17:51:29.677Z,63.82
2023-03-02T17:54:32.840Z,64.11
2023-03-02T17:57:36.823Z,63.95
2023-03-02T18:00:41.189Z,64.30
2023-03-02T18:03:45.233Z,64.54
2023-03-02T18:06:48.542Z,64.94
2023-03-02T18:09:51.501Z,64.83
2023-03-02T18:12:54.916Z,65.03
2023-03-02T18:15:57.470Z,65.07
2023-03-02T18:19:02.013Z,65.50
2023-03-02T18:22:05.028Z,66.07
2023-03-02T18:25:08.267Z,66.61
2023-03-02T18:28:10.917Z,67.09
2023-03-02T18:31:15.675Z,67.17
2023-03-02T18:34:19.881Z,67.37
2023-03-02T18:37:22.911Z,67.85
2023-03-02T18:40:27.833Z,68.01
2023-03-02T18:43:34.855Z,67.83
2023-03-02T18:46:38.426Z,67.90
2023-03-02T18:49:42.761Z,67.82
2023-03-02T18:52:45.718Z,68.18
2023-03-02T18:55:48.866Z,68.32
2023-03-02T18:58:52.940Z,68.59
2023-03-02T19:01:56.118Z,68.97
2023-03-02T19:04:59.728Z,68.82
2023-03-02T19:08:03.814Z,69.37
2023-03-02T19:11:06.680Z,69.32
2023-03-02T19:14:09.577Z,69.57
2023-03-02T19:17:12.727Z,69.42
2023-03-02T19:20:18.231Z,69.17
2023-03-02T19:23:21.535Z,69.29
2023-03-02T19:26:24.424Z,69.83
2023-03-02T19:29:28.758Z,70.24
2023-03-02T19:32:31.893Z,70.78
2023-03-02T19:35:35.463Z,71.47
2023-03-02T19:38:41.538Z,72.03
2023-03-02T19:41:44.460Z,72.01
2023-03-02T19:44:47.252Z,72.33
2023-03-02T19:47:50.040Z,72.75
2023-03-02T19:50:54.301Z,73.21
2023-03-02T19:53:57.959Z,73.74
2023-03-02T19:57:03.195Z,73.95
2023-03-02T20:00:09.336Z,74.03
2023-03-02T20:03:15.424Z,74.60
2023-03-02T20:06:20.726Z,74.60
2023-03-02T20:09:24.301Z,74.37
2023-03-02T20:12:27.053Z,74.33
2023-03-02T20:15:32.133Z,74.74
2023-03-02T20:18:35.609Z,74.60
2023-03-02T20:21:38.658Z,74.83
2023-03-02T20:24:42.611Z,75.62
2023-03-02T20:27:45.280Z,75.87
2023-03-02T20:30:56.386Z,75.77
2023-03-02T20:33:59.303Z,75.75
2023-03-02T20:37:03.282Z,75.32
2023-03-02T20:40:08.248Z,75.22
2023-03-02T20:43:13.175Z,75.59
2023-03-02T20:46:27.223Z,75.84
2023-03-02T20:49:31.225Z,76.21
2023-03-02T20:52:34.045Z,76.52
2023-03-02T20:55:36.895Z,76.17
2023-03-02T20:58:43.405Z,76.38
2023-03-02T21:01:46.258Z,76.92
2023-03-02T21:04:49.630Z,76.99
2023-03-02T21:07:53.911Z,77.13
2023-03-02T21:10:57.055Z,78.06
2023-03-02T21:14:02.168Z,78.49
2023-03-02T21:17:05.400Z,78.39
2023-03-02T21:20:09.320Z,78.92
2023-03-02T21:23:13.210Z,78.45
2023-03-02T21:26:16.243Z,79.03
2023-03-02T21:29:22.250Z,78.51
2023-03-02T21:32:24.894Z,79.25
2023-03-02T21:35:27.640Z,79.23
2023-03-02T21:38:30.680Z,79.26
2023-03-02T21:41:37.988Z,78.94
2023-03-02T21:44:44.067Z,78.49
2023-03-02T21:47:47.027Z,78.93
2023-03-02T21:50:49.929Z,78.97
2023-03-02T21:53:55.154Z,79.47
2023-03-02T21:56:57.631Z,79.27
2023-03-02T22:00:00.757Z,79.30
2023-03-02T22:03:03.866Z,79.06
2023-03-02T22:06:06.698Z,80.01
2023-03-02T22:09:11.567Z,80.71
2023-03-02T22:12:15.629Z,80.74
2023-03-02T22:15:21.184Z,80.59
2023-03-02T22:18:25.865Z,80.37
2023-03-02T22:21:37.469Z,80.66
2023-03-02T22:24:42.124Z,80.47
2023-03-02T22:27:46.145Z,80.75
2023-03-02T22:30:50.964Z,80.87
2023-03-02T22:33:53.914Z,80.90
2023-03-02T22:37:10.853Z,80.80
2023-03-02T22:40:30.583Z,81.72
2023-03-02T22:43:35.034Z,82.24
2023-03-02T22:46:37.562Z,81.86
2023-03-02T22:49:40.095Z,82.03
2023-03-02T22:52:44.684Z,82.81
2023-03-02T22:55:47.785Z,81.74
2023-03-02T22:58:51.428Z,81.75
2023-03-02T23:02:00.124Z,81.97
2023-03-02T23:05:18.136Z,81.95
2023-03-02T23:08:31.059Z,81.81
2023-03-02T23:11:40.981Z,81.95
2023-03-02T23:14:53.097Z,82.14
2023-03-02T23:17:57.819Z,82.47
2023-03-02T23:21:00.320Z,82.24
2023-03-02T23:24:03.185Z,82.70
2023-03-02T23:27:05.809Z,82.84
2023-03-02T23:30:09.615Z,82.45
2023-03-02T23:33:12.128Z,82.92
2023-03-02T23:36:15.489Z,82.70
2023-03-02T23:39:18.511Z,82.28
2023-03-02T23:42:21.123Z,83.45
2023-03-02T23:45:23.606Z,83.60
2023-03-02T23:48:26.343Z,82.67
2023-03-02T23:51:28.902Z,82.28
2023-03-02T23:54:31.529Z,83.24
2023-03-02T23:57:34.765Z,83.32
